MSC Ingrid — HOHA — position and weather

sailwx.info

Track history (hours):
 
Tides and Currents Weather Stations Pressure Air Temp Water Temp Dewpoint Dewpoint Depression Visibility Wind Speed Wind Dir Waves Ship Positions

MSC Ingrid

Last reported at 2016-Sep-28 21:26 UTC. Time now 2016-Sep-28 22:11 UTC.
Position N 51°55' E 003°38'.

Length 294 m; draft 6.1 m.

Type: Ship (hazmat cat A). MMSI: 354505000.

Date/timePositionNaut miles runAvg speedWind from/ knotsBaromVisibWave heightAir tempDewpointWater temp
2016-Sep-28 21:26N 51°55' E 003°38'0 0.0
2016-Sep-28 16:23N 51°55' E 003°38'0 0.1
2016-Sep-28 15:32N 51°55' E 003°38'0 0.0
2016-Sep-28 12:32N 51°55' E 003°38'0 0.0
2016-Sep-28 08:26N 51°55' E 003°38'17 3.5
2016-Sep-28 03:34N 51°45' E 003°15'1312.7
2016-Sep-28 02:34N 51°33' E 003°07'9 9.3
2016-Sep-28 01:33N 51°24' E 003°08'2211.1
2016-Sep-27 23:33N 51°23' E 003°43'21 5.1
2016-Sep-27 19:28N 51°18' E 004°16'0 0.0
2016-Sep-27 14:33N 51°18' E 004°16'0 0.0
2016-Sep-27 13:33N 51°18' E 004°16'3 1.1
2016-Sep-27 10:33N 51°21' E 004°17'2 0.2
2016-Sep-27 00:28N 51°20' E 004°20'0 0.0
2016-Sep-26 20:31N 51°20' E 004°20'0 0.0
2016-Sep-26 19:31N 51°20' E 004°20'0 0.0
2016-Sep-26 15:31N 51°20' E 004°20'0 0.0
2016-Sep-26 13:31N 51°20' E 004°20'0 0.1
2016-Sep-26 11:31N 51°20' E 004°20'0 0.0
2016-Sep-26 08:31N 51°20' E 004°20'0 0.0
2016-Sep-26 02:31N 51°20' E 004°20'0 0.0
2016-Sep-26 01:34N 51°20' E 004°20'0 0.0
2016-Sep-26 00:33N 51°20' E 004°20'0 0.0
2016-Sep-25 21:33N 51°20' E 004°20'0 0.0
2016-Sep-25 17:18N 51°20' E 004°20'0 0.1
2016-Sep-25 16:09N 51°20' E 004°20'0 0.0
2016-Sep-25 15:33N 51°20' E 004°20'0 0.0
2016-Sep-25 14:30N 51°20' E 004°20'2 1.2
2016-Sep-25 12:33N 51°21' E 004°17'3 2.6
2016-Sep-25 11:33N 51°22' E 004°13'9 9.1
2016-Sep-25 10:33N 51°26' E 004°00'1010.1
2016-Sep-25 09:34N 51°22' E 003°46'20 9.9
2016-Sep-25 07:34N 51°24' E 003°15'3812.8
2016-Sep-25 04:34N 51°17' E 002°14'6215.3
2016-Sep-25 00:33N 50°34' E 001°06'3215.9
2016-Sep-24 22:34N 50°21' E 000°20'1515.5
2016-Sep-24 21:34N 50°14' W 000°01'3316.3
2016-Sep-24 19:34N 49°44' W 000°21'1312.6
2016-Sep-24 18:33N 49°33' W 000°12'1211.9
2016-Sep-24 17:33N 49°29' E 000°05'3 2.5
2016-Sep-24 16:31N 49°28' E 000°08'0 0.0
2016-Sep-24 14:31N 49°28' E 000°08'0 0.0
2016-Sep-24 12:31N 49°28' E 000°08'0 0.0
2016-Sep-24 10:31N 49°28' E 000°08'0 0.0
2016-Sep-24 09:31N 49°28' E 000°08'0 0.0
2016-Sep-24 03:31N 49°28' E 000°08'0 0.0
2016-Sep-24 02:31N 49°28' E 000°09'0 0.0
2016-Sep-24 01:31N 49°28' E 000°08'0 0.0
2016-Sep-24 00:31N 49°28' E 000°08'0 0.0
2016-Sep-23 19:33N 49°28' E 000°08'10 5.2
2016-Sep-23 17:33N 49°31' W 000°06'7 7.1
2016-Sep-23 16:33N 49°34' W 000°17'7 6.9
2016-Sep-23 15:33N 49°40' W 000°20'2512.6
2016-Sep-23 13:33N 50°05' W 000°12'4611.2
2016-Sep-23 09:27N 50°37' E 000°39'4214.6
2016-Sep-23 06:33N 51°05' E 001°30'2512.7
2016-Sep-23 04:33N 51°25' E 001°54'1313.3
2016-Sep-23 03:33N 51°36' E 002°08'1413.8
2016-Sep-23 02:33N 51°46' E 002°23'37913.9
2016-Sep-21 23:23N 57°11' E 007°57'1214.5
2016-Sep-21 22:33N 57°18' E 008°15'8614.3
2016-Sep-21 16:30N 57°49' E 010°45'9012.7
2016-Sep-21 09:26N 56°22' E 011°29'1314.8
2016-Sep-21 08:33N 56°11' E 011°17'6613.3
2016-Sep-21 03:33N 55°06' E 010°59'1313.4
2016-Sep-21 02:33N 54°53' E 010°51'10611.7
2016-Sep-20 17:32N 54°43' E 013°53'4414.7
2016-Sep-20 14:33N 54°41' E 015°10'9114.5
2016-Sep-20 08:15N 55°01' E 017°44'8 8.2
2016-Sep-20 07:15N 55°05' E 017°57'1013.8
2016-Sep-20 06:33N 55°10' E 018°11'5613.4
2016-Sep-20 02:22N 55°37' E 019°38'  
Track history (hours):
 
Tides and Currents Weather Stations Pressure Air Temp Water Temp Dewpoint Dewpoint Depression Visibility Wind Speed Wind Dir Waves Ship Positions

MSC Ingrid

Last reported at 2016-Sep-28 21:26 UTC. Time now 2016-Sep-28 22:11 UTC.
Position N 51°55' E 003°38'.

Length 294 m; draft 6.1 m.

Type: Ship (hazmat cat A). MMSI: 354505000.

Date/timePositionNaut miles runAvg speedWind from/ knotsBaromVisibWave heightAir tempDewpointWater temp
2016-Sep-28 21:26N 51°55' E 003°38'0 0.0
2016-Sep-28 16:23N 51°55' E 003°38'0 0.1
2016-Sep-28 15:32N 51°55' E 003°38'0 0.0
2016-Sep-28 12:32N 51°55' E 003°38'0 0.0
2016-Sep-28 08:26N 51°55' E 003°38'17 3.5
2016-Sep-28 03:34N 51°45' E 003°15'1312.7
2016-Sep-28 02:34N 51°33' E 003°07'9 9.3
2016-Sep-28 01:33N 51°24' E 003°08'2211.1
2016-Sep-27 23:33N 51°23' E 003°43'21 5.1
2016-Sep-27 19:28N 51°18' E 004°16'0 0.0
2016-Sep-27 14:33N 51°18' E 004°16'0 0.0
2016-Sep-27 13:33N 51°18' E 004°16'3 1.1
2016-Sep-27 10:33N 51°21' E 004°17'2 0.2
2016-Sep-27 00:28N 51°20' E 004°20'0 0.0
2016-Sep-26 20:31N 51°20' E 004°20'0 0.0
2016-Sep-26 19:31N 51°20' E 004°20'0 0.0
2016-Sep-26 15:31N 51°20' E 004°20'0 0.0
2016-Sep-26 13:31N 51°20' E 004°20'0 0.1
2016-Sep-26 11:31N 51°20' E 004°20'0 0.0
2016-Sep-26 08:31N 51°20' E 004°20'0 0.0
2016-Sep-26 02:31N 51°20' E 004°20'0 0.0
2016-Sep-26 01:34N 51°20' E 004°20'0 0.0
2016-Sep-26 00:33N 51°20' E 004°20'0 0.0
2016-Sep-25 21:33N 51°20' E 004°20'0 0.0
2016-Sep-25 17:18N 51°20' E 004°20'0 0.1
2016-Sep-25 16:09N 51°20' E 004°20'0 0.0
2016-Sep-25 15:33N 51°20' E 004°20'0 0.0
2016-Sep-25 14:30N 51°20' E 004°20'2 1.2
2016-Sep-25 12:33N 51°21' E 004°17'3 2.6
2016-Sep-25 11:33N 51°22' E 004°13'9 9.1
2016-Sep-25 10:33N 51°26' E 004°00'1010.1
2016-Sep-25 09:34N 51°22' E 003°46'20 9.9
2016-Sep-25 07:34N 51°24' E 003°15'3812.8
2016-Sep-25 04:34N 51°17' E 002°14'6215.3
2016-Sep-25 00:33N 50°34' E 001°06'3215.9
2016-Sep-24 22:34N 50°21' E 000°20'1515.5
2016-Sep-24 21:34N 50°14' W 000°01'3316.3
2016-Sep-24 19:34N 49°44' W 000°21'1312.6
2016-Sep-24 18:33N 49°33' W 000°12'1211.9
2016-Sep-24 17:33N 49°29' E 000°05'3 2.5
2016-Sep-24 16:31N 49°28' E 000°08'0 0.0
2016-Sep-24 14:31N 49°28' E 000°08'0 0.0
2016-Sep-24 12:31N 49°28' E 000°08'0 0.0
2016-Sep-24 10:31N 49°28' E 000°08'0 0.0
2016-Sep-24 09:31N 49°28' E 000°08'0 0.0
2016-Sep-24 03:31N 49°28' E 000°08'0 0.0
2016-Sep-24 02:31N 49°28' E 000°09'0 0.0
2016-Sep-24 01:31N 49°28' E 000°08'0 0.0
2016-Sep-24 00:31N 49°28' E 000°08'0 0.0
2016-Sep-23 19:33N 49°28' E 000°08'10 5.2
2016-Sep-23 17:33N 49°31' W 000°06'7 7.1
2016-Sep-23 16:33N 49°34' W 000°17'7 6.9
2016-Sep-23 15:33N 49°40' W 000°20'2512.6
2016-Sep-23 13:33N 50°05' W 000°12'4611.2
2016-Sep-23 09:27N 50°37' E 000°39'4214.6
2016-Sep-23 06:33N 51°05' E 001°30'2512.7
2016-Sep-23 04:33N 51°25' E 001°54'1313.3
2016-Sep-23 03:33N 51°36' E 002°08'1413.8
2016-Sep-23 02:33N 51°46' E 002°23'37913.9
2016-Sep-21 23:23N 57°11' E 007°57'1214.5
2016-Sep-21 22:33N 57°18' E 008°15'8614.3
2016-Sep-21 16:30N 57°49' E 010°45'9012.7
2016-Sep-21 09:26N 56°22' E 011°29'1314.8
2016-Sep-21 08:33N 56°11' E 011°17'6613.3
2016-Sep-21 03:33N 55°06' E 010°59'1313.4
2016-Sep-21 02:33N 54°53' E 010°51'10611.7
2016-Sep-20 17:32N 54°43' E 013°53'4414.7
2016-Sep-20 14:33N 54°41' E 015°10'9114.5
2016-Sep-20 08:15N 55°01' E 017°44'8 8.2
2016-Sep-20 07:15N 55°05' E 017°57'1013.8
2016-Sep-20 06:33N 55°10' E 018°11'5613.4
2016-Sep-20 02:22N 55°37' E 019°38'  

Dump ship's entire track history